createdAt,value
2023-06-06T00:00:41.615Z,85.59
2023-06-06T00:05:43.003Z,86.03
2023-06-06T00:10:44.498Z,86.69
2023-06-06T00:15:45.896Z,86.37
2023-06-06T00:20:47.393Z,87.85
2023-06-06T00:25:50.684Z,86.99
2023-06-06T00:30:52.022Z,88.25
2023-06-06T00:35:53.378Z,88.77
2023-06-06T00:40:56.545Z,89.34
2023-06-06T00:45:58.009Z,91.02
2023-06-06T00:51:00.325Z,90.33
2023-06-06T00:56:02.354Z,90.68
2023-06-06T01:01:03.813Z,91.33
2023-06-06T01:06:06.745Z,91.96
2023-06-06T01:11:14.137Z,92.86
2023-06-06T01:16:18.486Z,91.38
2023-06-06T01:21:21.080Z,91.31
2023-06-06T01:26:23.804Z,92.18
2023-06-06T01:31:27.885Z,92.48
2023-06-06T01:36:42.480Z,92.84
2023-06-06T01:41:46.451Z,94.42
2023-06-06T01:46:47.851Z,94.37
2023-06-06T01:51:49.260Z,95.41
2023-06-06T01:56:51.401Z,95.24
2023-06-06T02:01:52.734Z,95.77
2023-06-06T02:06:54.096Z,96.36
2023-06-06T02:11:55.449Z,96.72
2023-06-06T02:16:56.819Z,97.20
2023-06-06T02:21:58.373Z,97.87
2023-06-06T02:26:59.755Z,98.38
2023-06-06T02:32:01.125Z,99.29
2023-06-06T02:37:07.774Z,99.52
2023-06-06T02:42:09.147Z,100.00
2023-06-06T02:47:10.584Z,100.00
2023-06-06T02:52:11.932Z,100.00
2023-06-06T02:57:13.285Z,100.00
2023-06-06T03:02:16.863Z,100.00
2023-06-06T03:07:18.198Z,100.00
2023-06-06T03:12:19.555Z,100.00
2023-06-06T03:17:20.931Z,100.00
2023-06-06T03:22:22.321Z,100.00
2023-06-06T03:27:23.696Z,100.00
2023-06-06T03:32:25.149Z,100.00
2023-06-06T03:37:26.626Z,100.00
2023-06-06T03:42:27.988Z,100.00
2023-06-06T03:47:29.384Z,100.00
2023-06-06T03:52:30.826Z,100.00
2023-06-06T03:57:32.167Z,100.00
2023-06-06T04:02:34.241Z,100.00
2023-06-06T04:07:36.976Z,100.00
2023-06-06T04:12:40.734Z,100.00
2023-06-06T04:17:42.156Z,100.00
2023-06-06T04:22:44.368Z,97.42
2023-06-06T04:27:46.343Z,89.58
2023-06-06T04:32:49.284Z,90.67
2023-06-06T04:37:55.187Z,91.40
2023-06-06T04:42:59.512Z,94.30
2023-06-06T04:48:01.057Z,97.06
2023-06-06T04:53:02.462Z,96.10
2023-06-06T04:58:04.005Z,94.03
2023-06-06T05:03:05.459Z,93.13
2023-06-06T05:08:06.845Z,91.69
2023-06-06T05:13:08.208Z,90.23
2023-06-06T05:18:09.594Z,89.28
2023-06-06T05:23:11.003Z,89.67
2023-06-06T05:28:12.544Z,88.76
2023-06-06T05:33:14.188Z,73.70
2023-06-06T05:38:16.371Z,66.97
2023-06-06T05:43:17.819Z,64.08
2023-06-06T05:48:19.163Z,60.06
2023-06-06T05:53:22.486Z,56.81
2023-06-06T05:58:24.149Z,52.48
2023-06-06T06:03:26.258Z,51.34
2023-06-06T06:08:27.623Z,53.65
2023-06-06T06:13:29.542Z,50.87
2023-06-06T06:18:30.946Z,52.62
2023-06-06T06:23:32.419Z,47.08
2023-06-06T06:28:33.787Z,44.52
2023-06-06T06:33:35.379Z,49.67
2023-06-06T06:38:37.608Z,51.51
2023-06-06T06:43:38.990Z,47.79
2023-06-06T06:48:40.554Z,49.82
2023-06-06T06:53:41.992Z,49.21
2023-06-06T06:58:43.344Z,49.10
2023-06-06T07:03:46.749Z,44.34
2023-06-06T07:08:48.105Z,44.94
2023-06-06T07:13:49.848Z,41.28
2023-06-06T07:18:52.575Z,43.29
2023-06-06T07:23:54.018Z,45.23
2023-06-06T07:28:55.435Z,40.62
2023-06-06T07:33:56.950Z,41.76
2023-06-06T07:38:58.481Z,44.12
2023-06-06T07:43:59.876Z,40.47
2023-06-06T07:49:01.273Z,40.25
2023-06-06T07:54:02.733Z,39.92
2023-06-06T07:59:04.401Z,38.23
2023-06-06T08:04:08.704Z,39.36
2023-06-06T08:09:10.132Z,37.40
2023-06-06T08:14:11.653Z,37.24
2023-06-06T08:19:13.052Z,42.14
2023-06-06T08:24:14.497Z,40.31
2023-06-06T08:29:16.009Z,38.18
2023-06-06T08:34:17.393Z,37.49
2023-06-06T08:39:19.766Z,38.97
2023-06-06T08:44:22.572Z,38.99
2023-06-06T08:49:25.976Z,36.62
2023-06-06T08:54:28.118Z,33.82
2023-06-06T08:59:29.572Z,31.73
2023-06-06T09:04:33.096Z,29.56
2023-06-06T09:09:34.838Z,29.51
2023-06-06T09:14:36.282Z,30.65
2023-06-06T09:19:37.603Z,29.09
2023-06-06T09:24:45.961Z,30.50
2023-06-06T09:29:47.501Z,29.80
2023-06-06T09:34:49.496Z,30.34
2023-06-06T09:40:09.847Z,30.10
2023-06-06T09:45:15.371Z,30.35
2023-06-06T09:50:18.299Z,29.10
2023-06-06T09:55:19.963Z,28.01
2023-06-06T10:00:22.559Z,28.74
2023-06-06T10:05:24.308Z,28.38
2023-06-06T10:10:26.315Z,31.86
2023-06-06T10:15:28.009Z,32.55
2023-06-06T10:20:29.444Z,33.77
2023-06-06T10:25:31.486Z,31.85
2023-06-06T10:30:32.804Z,29.01
2023-06-06T10:35:35.298Z,28.89
2023-06-06T10:40:53.646Z,28.56
2023-06-06T10:45:56.439Z,35.92
2023-06-06T10:50:57.799Z,34.84
2023-06-06T10:55:59.335Z,32.64
2023-06-06T11:01:02.148Z,30.12
2023-06-06T11:06:15.347Z,28.15
2023-06-06T11:11:18.283Z,30.04
2023-06-06T11:16:46.364Z,29.48
2023-06-06T11:21:49.088Z,32.27
2023-06-06T11:26:51.320Z,30.31
2023-06-06T11:31:52.921Z,28.94
2023-06-06T11:36:55.160Z,30.05
2023-06-06T11:41:57.804Z,27.23
2023-06-06T11:46:59.654Z,26.43
2023-06-06T11:52:04.925Z,27.51
2023-06-06T11:57:09.150Z,28.69
2023-06-06T12:02:13.859Z,26.33
2023-06-06T12:07:15.397Z,26.09
2023-06-06T12:12:16.736Z,26.61
2023-06-06T12:17:20.149Z,25.93
2023-06-06T12:22:32.435Z,27.54
2023-06-06T12:27:37.901Z,26.73
2023-06-06T12:32:39.886Z,25.49
2023-06-06T12:37:42.515Z,26.44
2023-06-06T12:42:50.832Z,25.24
2023-06-06T12:47:52.825Z,25.86
2023-06-06T12:52:54.288Z,25.38
2023-06-06T12:57:55.706Z,25.84
2023-06-06T13:02:57.214Z,27.66
2023-06-06T13:07:58.642Z,29.22
2023-06-06T13:13:00.028Z,27.73
2023-06-06T13:18:01.507Z,28.97
2023-06-06T13:23:05.600Z,28.25
2023-06-06T13:28:06.943Z,28.20
2023-06-06T13:33:08.455Z,27.74
2023-06-06T13:38:10.138Z,28.65
2023-06-06T13:43:13.076Z,30.37
2023-06-06T13:48:15.956Z,29.28
2023-06-06T13:53:17.459Z,31.74
2023-06-06T13:58:23.598Z,30.75
2023-06-06T14:03:25.088Z,28.35
2023-06-06T14:08:26.524Z,27.65
2023-06-06T14:13:28.482Z,27.99
2023-06-06T14:18:30.132Z,29.90
2023-06-06T14:23:31.643Z,31.44
2023-06-06T14:28:33.087Z,32.77
2023-06-06T14:33:34.529Z,32.57
2023-06-06T14:38:37.006Z,31.15
2023-06-06T14:43:38.423Z,32.05
2023-06-06T14:48:40.684Z,32.09
2023-06-06T14:53:42.459Z,33.00
2023-06-06T14:58:44.501Z,34.40
2023-06-06T15:03:46.229Z,35.53
2023-06-06T15:08:47.737Z,33.98
2023-06-06T15:13:49.208Z,32.83
2023-06-06T15:18:50.589Z,32.87
2023-06-06T15:23:55.264Z,34.42
2023-06-06T15:28:57.619Z,33.43
2023-06-06T15:33:59.107Z,31.83
2023-06-06T15:39:02.111Z,32.39
2023-06-06T15:44:03.518Z,33.13
2023-06-06T15:49:04.888Z,32.63
2023-06-06T15:54:06.758Z,30.30
2023-06-06T15:59:09.069Z,31.25
2023-06-06T16:04:10.679Z,29.73
2023-06-06T16:09:12.050Z,28.29
2023-06-06T16:14:13.408Z,29.76
2023-06-06T16:19:14.830Z,31.69
2023-06-06T16:24:17.038Z,31.81
2023-06-06T16:29:18.422Z,33.00
2023-06-06T16:34:19.857Z,33.77
2023-06-06T16:39:21.258Z,33.24
2023-06-06T16:44:23.128Z,34.73
2023-06-06T16:49:24.512Z,36.09
2023-06-06T16:54:26.483Z,35.96
2023-06-06T16:59:27.862Z,35.82
2023-06-06T17:04:29.240Z,36.16
2023-06-06T17:09:30.698Z,37.03
2023-06-06T17:14:32.203Z,37.75
2023-06-06T17:19:33.539Z,38.25
2023-06-06T17:24:36.394Z,39.96
2023-06-06T17:29:37.755Z,39.69
2023-06-06T17:34:39.137Z,39.88
2023-06-06T17:39:40.504Z,39.44
2023-06-06T17:44:42.162Z,39.60
2023-06-06T17:49:43.534Z,39.79
2023-06-06T17:54:44.923Z,39.41
2023-06-06T17:59:46.257Z,40.00
2023-06-06T18:04:48.148Z,40.02
2023-06-06T18:09:49.686Z,39.80
2023-06-06T18:14:53.201Z,40.60
2023-06-06T18:19:54.791Z,40.00
2023-06-06T18:24:56.145Z,40.17
2023-06-06T18:29:57.542Z,39.21
2023-06-06T18:34:59.218Z,39.86
2023-06-06T18:40:01.197Z,38.95
2023-06-06T18:45:03.152Z,38.94
2023-06-06T18:50:04.968Z,37.91
2023-06-06T18:55:06.894Z,38.27
2023-06-06T19:00:09.176Z,37.84
2023-06-06T19:05:11.480Z,37.79
2023-06-06T19:10:13.216Z,38.59
2023-06-06T19:15:15.075Z,38.12
2023-06-06T19:20:18.827Z,39.08
2023-06-06T19:25:20.465Z,39.54
2023-06-06T19:30:21.872Z,39.30
2023-06-06T19:35:23.364Z,39.43
2023-06-06T19:40:25.548Z,41.86
2023-06-06T19:45:27.168Z,41.97
2023-06-06T19:50:28.583Z,42.06
2023-06-06T19:55:30.496Z,42.87
2023-06-06T20:00:31.860Z,44.06
2023-06-06T20:05:33.250Z,44.26
2023-06-06T20:10:34.753Z,47.99
2023-06-06T20:15:36.348Z,50.00
2023-06-06T20:20:42.379Z,48.81
2023-06-06T20:26:00.819Z,51.57
2023-06-06T20:31:04.155Z,52.06
2023-06-06T20:36:06.286Z,53.14
2023-06-06T20:41:07.623Z,52.36
2023-06-06T20:46:08.975Z,53.58
2023-06-06T20:51:10.341Z,56.20
2023-06-06T20:56:11.687Z,54.93
2023-06-06T21:01:14.021Z,55.50
2023-06-06T21:06:15.551Z,56.13
2023-06-06T21:11:16.942Z,57.01
2023-06-06T21:16:18.448Z,57.57
2023-06-06T21:21:21.684Z,59.99
2023-06-06T21:26:23.136Z,59.74
2023-06-06T21:31:24.549Z,61.09
2023-06-06T21:36:26.031Z,59.12
2023-06-06T21:41:28.239Z,62.77
2023-06-06T21:46:29.850Z,61.59
2023-06-06T21:51:31.256Z,65.43
2023-06-06T21:56:32.659Z,63.77
2023-06-06T22:01:34.069Z,63.81
2023-06-06T22:06:36.383Z,65.63
2023-06-06T22:11:37.748Z,66.89
2023-06-06T22:16:39.132Z,69.62
2023-06-06T22:21:40.575Z,68.85
2023-06-06T22:26:41.975Z,67.15
2023-06-06T22:31:43.359Z,67.79
2023-06-06T22:36:45.198Z,66.74
2023-06-06T22:41:46.650Z,68.81
2023-06-06T22:46:48.110Z,71.36
2023-06-06T22:51:49.582Z,70.21
2023-06-06T22:56:51.168Z,71.11
2023-06-06T23:01:52.685Z,71.87
2023-06-06T23:06:54.104Z,72.82
2023-06-06T23:11:55.566Z,72.54
2023-06-06T23:16:56.904Z,72.11
2023-06-06T23:21:58.235Z,73.54
2023-06-06T23:26:59.610Z,76.19
2023-06-06T23:32:01.016Z,76.85
2023-06-06T23:37:02.382Z,77.66
2023-06-06T23:42:03.824Z,77.22
2023-06-06T23:47:05.430Z,79.94
2023-06-06T23:52:07.154Z,79.46
2023-06-06T23:57:08.536Z,80.56
